Time;durP1;ratioP1;P1;durP2;ratioP2;P2;SDS_P1;SDS_P2;PMS_P1;PMS_P2;Temp;Humidity;BMP_temperature;BMP_pressure;BME280_temperature;BME280_humidity;BME280_pressure;Samples;Min_cycle;Max_cycle;Signal;HPM_P1;HPM_P2
2023/03/27 00:01:38;;;;;;;0.05;0.05;;;7.10;99.90;;;;;;5007332;28;20262;-60
2023/03/27 00:04:04;;;;;;;0.00;0.00;;;7.10;99.90;;;;;;5001922;28;20279;-60
2023/03/27 00:06:33;;;;;;;0.00;0.00;;;7.10;99.90;;;;;;5011791;28;20226;-60
2023/03/27 00:08:58;;;;;;;0.00;0.00;;;7.10;99.90;;;;;;5010745;28;20244;-60
2023/03/27 00:11:24;;;;;;;0.00;0.00;;;7.10;99.90;;;;;;4999664;28;20179;-60
2023/03/27 00:13:53;;;;;;;0.00;0.00;;;7.20;99.90;;;;;;5008907;28;20218;-60
2023/03/27 00:16:20;;;;;;;0.08;0.08;;;7.10;99.90;;;;;;5011738;28;20171;-60
2023/03/27 00:18:45;;;;;;;0.00;0.00;;;7.10;99.90;;;;;;5005204;28;20274;-60
2023/03/27 00:21:11;;;;;;;0.00;0.00;;;7.10;99.90;;;;;;5011772;28;20258;-60
2023/03/27 00:23:37;;;;;;;0.00;0.00;;;7.10;99.90;;;;;;5011558;28;20183;-60
2023/03/27 00:26:03;;;;;;;0.00;0.00;;;7.10;99.90;;;;;;5011569;28;20182;-60
2023/03/27 00:28:29;;;;;;;0.00;0.00;;;7.10;99.90;;;;;;5009487;28;20213;-60
2023/03/27 00:30:55;;;;;;;0.00;0.00;;;7.10;99.90;;;;;;5011128;28;20591;-59
2023/03/27 00:33:22;;;;;;;0.00;0.00;;;7.10;99.90;;;;;;5010902;28;20622;-59
2023/03/27 00:35:49;;;;;;;0.00;0.00;;;7.10;99.90;;;;;;5011738;28;20190;-60
2023/03/27 00:38:17;;;;;;;0.00;0.00;;;7.10;99.90;;;;;;5004223;28;20183;-60
2023/03/27 00:40:44;;;;;;;0.00;0.00;;;7.00;99.90;;;;;;5011665;28;20175;-60
2023/03/27 00:43:25;;;;;;;0.00;0.00;;;6.90;99.90;;;;;;5003366;28;20183;-60
2023/03/27 00:45:57;;;;;;;0.00;0.00;;;6.90;99.90;;;;;;5007189;28;20182;-59
2023/03/27 00:48:24;;;;;;;0.00;0.00;;;6.80;99.90;;;;;;5004970;28;20193;-59
2023/03/27 00:50:50;;;;;;;0.00;0.00;;;6.70;99.90;;;;;;5011414;28;20191;-59
2023/03/27 00:53:21;;;;;;;0.00;0.00;;;6.70;99.90;;;;;;5009451;28;20211;-60
2023/03/27 00:55:50;;;;;;;0.00;0.00;;;6.70;99.90;;;;;;5010194;28;20518;-59
2023/03/27 00:58:21;;;;;;;0.00;0.00;;;6.60;99.90;;;;;;5010873;28;20194;-59
2023/03/27 01:00:51;;;;;;;0.00;0.00;;;6.60;99.90;;;;;;5010596;28;20190;-60
2023/03/27 01:03:18;;;;;;;0.00;0.00;;;6.60;99.90;;;;;;5002899;28;20187;-60
2023/03/27 01:05:44;;;;;;;0.00;0.00;;;6.50;99.90;;;;;;4999067;28;20219;-60
2023/03/27 01:08:10;;;;;;;0.10;0.10;;;6.50;99.90;;;;;;5010986;28;20178;-60
2023/03/27 01:11:00;;;;;;;0.00;0.00;;;6.50;99.90;;;;;;5004800;28;20206;-60
2023/03/27 01:13:51;;;;;;;0.00;0.00;;;6.40;99.90;;;;;;5009459;28;20217;-60
2023/03/27 01:16:21;;;;;;;0.00;0.00;;;6.40;99.90;;;;;;4996796;28;20195;-60
2023/03/27 01:19:15;;;;;;;0.00;0.00;;;6.40;99.90;;;;;;5011286;28;20191;-60
2023/03/27 01:22:08;;;;;;;0.00;0.00;;;6.30;99.90;;;;;;5008774;28;20182;-59
2023/03/27 01:25:11;;;;;;;0.00;0.00;;;6.20;99.90;;;;;;4997330;28;20183;-60
2023/03/27 01:28:01;;;;;;;0.00;0.00;;;6.00;99.90;;;;;;5010892;28;20221;-60
2023/03/27 01:30:35;;;;;;;0.00;0.00;;;5.90;99.90;;;;;;5010824;28;20187;-60
2023/03/27 01:33:18;;;;;;;0.00;0.00;;;5.80;99.90;;;;;;5011201;28;20214;-60
2023/03/27 01:36:15;;;;;;;0.00;0.00;;;5.80;99.90;;;;;;5009594;28;20183;-59
2023/03/27 01:39:00;;;;;;;0.00;0.00;;;5.70;99.90;;;;;;4995858;28;20183;-60
2023/03/27 01:41:41;;;;;;;0.00;0.00;;;5.70;99.90;;;;;;5007101;28;20679;-59
2023/03/27 01:44:29;;;;;;;0.00;0.00;;;5.70;99.90;;;;;;5014933;28;20186;-59
2023/03/27 01:47:06;;;;;;;0.00;0.00;;;5.70;99.90;;;;;;5012733;28;20175;-63
2023/03/27 01:49:45;;;;;;;0.00;0.00;;;5.60;99.90;;;;;;5006844;28;20645;-60
2023/03/27 01:52:19;;;;;;;0.00;0.00;;;5.60;99.90;;;;;;5011007;28;20199;-59
2023/03/27 01:54:54;;;;;;;0.00;0.00;;;5.60;99.90;;;;;;5010930;28;20193;-60
2023/03/27 01:57:33;;;;;;;0.00;0.00;;;5.50;99.90;;;;;;5014474;28;20205;-59
2023/03/27 02:00:13;;;;;;;0.00;0.00;;;5.50;99.90;;;;;;5005146;28;20556;-60
2023/03/27 02:02:44;;;;;;;0.13;0.13;;;5.40;99.90;;;;;;5014368;28;20210;-60
2023/03/27 02:05:35;;;;;;;0.20;0.20;;;5.40;99.90;;;;;;5011336;28;20548;-61
2023/03/27 02:08:23;;;;;;;0.10;0.10;;;5.30;99.90;;;;;;5001913;28;20650;-60
2023/03/27 02:10:54;;;;;;;0.20;0.20;;;5.30;99.90;;;;;;5004661;28;20241;-60
2023/03/27 02:13:44;;;;;;;0.00;0.00;;;5.30;99.90;;;;;;5014344;28;20244;-60
2023/03/27 02:16:16;;;;;;;0.32;0.32;;;5.30;99.90;;;;;;5012909;28;20278;-60
2023/03/27 02:18:48;;;;;;;0.28;0.28;;;5.30;99.90;;;;;;5014198;28;20661;-60
2023/03/27 02:21:14;;;;;;;0.25;0.25;;;5.30;99.90;;;;;;5002456;28;20171;-60
2023/03/27 02:23:41;;;;;;;0.55;0.55;;;5.30;99.90;;;;;;5013927;28;20229;-59
2023/03/27 02:26:11;;;;;;;0.00;0.00;;;5.30;99.90;;;;;;5010661;28;20211;-59
2023/03/27 02:29:21;;;;;;;0.00;0.00;;;5.30;99.90;;;;;;5013810;28;20197;-60
2023/03/27 02:32:06;;;;;;;1.25;0.95;;;5.30;99.90;;;;;;4971335;28;20643;-60
2023/03/27 02:34:42;;;;;;;0.00;0.00;;;5.30;99.90;;;;;;4971651;28;20204;-60
2023/03/27 02:37:18;;;;;;;0.00;0.00;;;5.20;99.90;;;;;;4999991;28;20236;-59
2023/03/27 02:39:56;;;;;;;0.00;0.00;;;5.20;99.90;;;;;;5008815;28;20211;-59
2023/03/27 02:42:40;;;;;;;0.00;0.00;;;5.20;99.90;;;;;;5006264;28;20274;-58
2023/03/27 02:45:15;;;;;;;0.10;0.10;;;5.20;99.90;;;;;;5013743;28;20261;-57
2023/03/27 02:47:50;;;;;;;0.00;0.00;;;5.20;99.90;;;;;;5007630;28;20197;-58
2023/03/27 02:50:43;;;;;;;0.00;0.00;;;5.20;99.90;;;;;;5009441;28;20228;-58
2023/03/27 02:53:12;;;;;;;0.00;0.00;;;5.20;99.90;;;;;;4994057;28;20226;-58
2023/03/27 02:55:42;;;;;;;0.00;0.00;;;5.20;99.90;;;;;;5013302;28;20182;-58
2023/03/27 02:58:17;;;;;;;0.00;0.00;;;5.20;99.90;;;;;;5004689;28;20585;-58
2023/03/27 03:00:47;;;;;;;0.00;0.00;;;5.20;99.90;;;;;;5011967;28;20182;-58
2023/03/27 03:03:19;;;;;;;0.00;0.00;;;5.20;99.90;;;;;;5009261;28;20217;-58
2023/03/27 03:05:45;;;;;;;0.00;0.00;;;5.20;99.90;;;;;;5013151;28;20210;-60
2023/03/27 03:08:13;;;;;;;0.00;0.00;;;5.20;99.90;;;;;;5011716;28;20209;-60
2023/03/27 03:10:46;;;;;;;0.00;0.00;;;5.10;99.90;;;;;;5012797;28;20227;-60
2023/03/27 03:13:15;;;;;;;0.00;0.00;;;5.00;99.90;;;;;;5009777;28;20215;-60
2023/03/27 03:15:42;;;;;;;0.00;0.00;;;4.90;99.90;;;;;;5013422;28;20167;-60
2023/03/27 03:18:08;;;;;;;0.00;0.00;;;4.90;99.90;;;;;;5010752;28;20529;-59
2023/03/27 03:20:34;;;;;;;0.00;0.00;;;4.80;99.90;;;;;;5012684;28;20179;-59
2023/03/27 03:23:00;;;;;;;0.00;0.00;;;4.80;99.90;;;;;;5012973;28;20190;-60
2023/03/27 03:25:25;;;;;;;0.00;0.00;;;4.70;99.90;;;;;;5000821;28;20507;-59
2023/03/27 03:27:56;;;;;;;0.00;0.00;;;4.70;99.90;;;;;;4993478;28;20194;-59
2023/03/27 03:30:27;;;;;;;0.00;0.00;;;4.60;99.90;;;;;;5007318;28;20195;-63
2023/03/27 03:32:55;;;;;;;0.00;0.00;;;4.50;99.90;;;;;;5012091;28;20297;-61
2023/03/27 03:35:23;;;;;;;0.00;0.00;;;4.40;99.90;;;;;;5011131;28;20753;-60
2023/03/27 03:37:50;;;;;;;0.00;0.00;;;4.30;99.90;;;;;;5004546;28;20185;-59
2023/03/27 03:40:17;;;;;;;0.00;0.00;;;4.30;99.90;;;;;;5011262;28;20198;-61
2023/03/27 03:42:47;;;;;;;0.00;0.00;;;4.20;99.90;;;;;;5004818;28;20657;-61
2023/03/27 03:45:13;;;;;;;0.00;0.00;;;4.20;99.90;;;;;;5003242;28;20232;-60
2023/03/27 03:47:40;;;;;;;0.00;0.00;;;4.10;99.90;;;;;;5004562;28;20218;-61
2023/03/27 03:50:06;;;;;;;0.10;0.10;;;4.10;99.90;;;;;;5012627;28;20220;-61
2023/03/27 03:52:31;;;;;;;0.00;0.00;;;4.10;99.90;;;;;;5007827;28;20226;-60
2023/03/27 03:54:57;;;;;;;0.03;0.03;;;4.00;99.90;;;;;;5004138;28;20183;-60
2023/03/27 03:57:22;;;;;;;0.10;0.10;;;4.00;99.90;;;;;;5012365;28;20179;-60
2023/03/27 03:59:48;;;;;;;0.00;0.00;;;4.00;99.90;;;;;;5006346;28;20530;-60
2023/03/27 04:02:26;;;;;;;0.00;0.00;;;4.10;99.90;;;;;;5012108;28;20274;-60
2023/03/27 04:04:56;;;;;;;0.00;0.00;;;4.00;99.90;;;;;;5011536;28;20174;-60
2023/03/27 04:07:22;;;;;;;0.00;0.00;;;4.00;99.90;;;;;;5012133;28;20673;-60
2023/03/27 04:09:51;;;;;;;0.00;0.00;;;3.90;99.90;;;;;;5001221;28;20180;-60
2023/03/27 04:12:17;;;;;;;0.00;0.00;;;3.80;99.90;;;;;;5011862;28;20198;-58
2023/03/27 04:14:44;;;;;;;0.00;0.00;;;3.70;99.90;;;;;;5009562;28;20248;-59
2023/03/27 04:17:10;;;;;;;0.00;0.00;;;3.90;99.90;;;;;;4992396;28;20540;-59
2023/03/27 04:19:36;;;;;;;0.00;0.00;;;3.90;99.90;;;;;;4992169;28;20176;-59
2023/03/27 04:22:02;;;;;;;0.00;0.00;;;3.90;99.90;;;;;;4992393;28;20182;-58
2023/03/27 04:24:29;;;;;;;0.00;0.00;;;3.80;99.90;;;;;;4992378;28;20171;-59
2023/03/27 04:26:57;;;;;;;0.00;0.00;;;3.60;99.90;;;;;;4992295;28;20194;-58
2023/03/27 04:29:23;;;;;;;0.00;0.00;;;3.50;99.90;;;;;;4992343;28;20178;-59
2023/03/27 04:31:49;;;;;;;0.00;0.00;;;3.40;99.90;;;;;;4958919;28;20179;-59
2023/03/27 04:34:19;;;;;;;0.00;0.00;;;3.40;99.90;;;;;;4997744;28;20245;-58
2023/03/27 04:36:46;;;;;;;0.00;0.00;;;3.30;99.90;;;;;;4998026;28;20199;-58
2023/03/27 04:39:11;;;;;;;0.00;0.00;;;3.30;99.90;;;;;;4992048;28;20190;-59
2023/03/27 04:41:37;;;;;;;0.00;0.00;;;3.30;99.90;;;;;;4992092;28;20176;-58
2023/03/27 04:44:04;;;;;;;0.00;0.00;;;3.30;99.90;;;;;;4992149;28;20223;-59
2023/03/27 04:46:30;;;;;;;0.05;0.05;;;3.20;99.90;;;;;;4992003;28;20180;-59
2023/03/27 04:48:55;;;;;;;0.00;0.00;;;3.20;99.90;;;;;;4992121;28;20254;-59
2023/03/27 04:51:21;;;;;;;0.00;0.00;;;3.20;99.90;;;;;;4992008;28;20646;-59
2023/03/27 04:53:46;;;;;;;0.00;0.00;;;3.20;99.90;;;;;;4991987;28;20250;-59
2023/03/27 04:56:12;;;;;;;0.00;0.00;;;3.30;99.90;;;;;;4991920;28;20183;-59
2023/03/27 04:58:40;;;;;;;0.00;0.00;;;3.30;99.90;;;;;;4991850;28;20206;-59
2023/03/27 05:01:06;;;;;;;0.00;0.00;;;3.30;99.90;;;;;;5007080;28;20183;-59
2023/03/27 05:03:33;;;;;;;1.05;0.63;;;3.40;99.90;;;;;;5010770;28;20187;-59
2023/03/27 05:05:58;;;;;;;0.00;0.00;;;3.40;99.90;;;;;;5005426;28;20619;-59
2023/03/27 05:08:24;;;;;;;0.00;0.00;;;3.40;99.90;;;;;;5007905;28;20197;-59
2023/03/27 05:10:49;;;;;;;0.00;0.00;;;3.40;99.90;;;;;;5001054;28;20183;-59
2023/03/27 05:13:15;;;;;;;1.00;0.32;;;3.40;99.90;;;;;;5011140;28;20210;-59
2023/03/27 05:15:40;;;;;;;0.00;0.00;;;3.40;99.90;;;;;;5011610;28;20175;-59
2023/03/27 05:18:07;;;;;;;0.00;0.00;;;3.40;99.90;;;;;;5015057;28;20656;-59
2023/03/27 05:20:34;;;;;;;0.00;0.00;;;3.40;99.90;;;;;;5015373;28;20179;-59
2023/03/27 05:22:59;;;;;;;0.00;0.00;;;3.40;99.90;;;;;;4997843;28;20186;-59
2023/03/27 05:25:25;;;;;;;0.00;0.00;;;3.40;99.90;;;;;;4991372;28;20266;-59
2023/03/27 05:27:52;;;;;;;0.00;0.00;;;3.40;99.90;;;;;;4995822;28;20205;-59
2023/03/27 05:30:20;;;;;;;0.00;0.00;;;3.40;99.90;;;;;;4995764;28;20262;-60
2023/03/27 05:32:47;;;;;;;0.00;0.00;;;3.40;99.90;;;;;;4995728;28;20214;-59
2023/03/27 05:35:17;;;;;;;0.00;0.00;;;3.40;99.90;;;;;;4995567;28;20183;-59
2023/03/27 05:37:47;;;;;;;0.00;0.00;;;3.40;99.90;;;;;;4995799;28;20180;-59
2023/03/27 05:40:14;;;;;;;0.00;0.00;;;3.50;99.90;;;;;;4995377;28;20175;-59
2023/03/27 05:42:44;;;;;;;0.00;0.00;;;3.50;99.90;;;;;;4995532;28;20708;-59
2023/03/27 05:45:10;;;;;;;0.00;0.00;;;3.50;99.90;;;;;;4995331;28;20196;-59
2023/03/27 05:47:53;;;;;;;0.00;0.00;;;3.50;99.90;;;;;;4995715;28;20187;-59
2023/03/27 05:50:21;;;;;;;0.00;0.00;;;3.50;99.90;;;;;;5012080;28;20179;-59
2023/03/27 05:52:53;;;;;;;0.00;0.00;;;3.50;99.90;;;;;;5013463;28;20217;-59
2023/03/27 05:55:19;;;;;;;0.00;0.00;;;3.50;99.90;;;;;;5014091;28;20209;-59
2023/03/27 05:57:45;;;;;;;0.00;0.00;;;3.50;99.90;;;;;;5014524;28;20670;-59
2023/03/27 06:00:15;;;;;;;0.00;0.00;;;3.50;99.90;;;;;;5014669;28;20186;-59
2023/03/27 06:02:42;;;;;;;0.00;0.00;;;3.50;99.90;;;;;;5014582;28;20288;-59
2023/03/27 06:05:15;;;;;;;0.00;0.00;;;3.50;99.90;;;;;;5014685;28;20171;-59
2023/03/27 06:07:42;;;;;;;0.00;0.00;;;3.50;99.90;;;;;;5014754;28;20221;-59
2023/03/27 06:10:10;;;;;;;0.00;0.00;;;3.50;99.90;;;;;;5014464;28;20197;-59
2023/03/27 06:12:36;;;;;;;0.00;0.00;;;3.60;99.90;;;;;;5014289;28;20230;-59
2023/03/27 06:15:06;;;;;;;0.00;0.00;;;3.70;99.90;;;;;;5014440;28;20199;-59
2023/03/27 06:17:32;;;;;;;0.00;0.00;;;3.80;99.90;;;;;;5014372;28;20190;-59
2023/03/27 06:19:58;;;;;;;0.00;0.00;;;3.90;99.90;;;;;;4996913;28;20270;-59
2023/03/27 06:22:24;;;;;;;0.00;0.00;;;4.10;99.90;;;;;;5014242;28;20309;-59
2023/03/27 06:24:50;;;;;;;0.00;0.00;;;4.30;99.90;;;;;;5014165;28;20551;-59
2023/03/27 06:27:17;;;;;;;0.00;0.00;;;4.40;99.90;;;;;;5013674;28;20175;-59
2023/03/27 06:29:42;;;;;;;0.00;0.00;;;4.50;99.90;;;;;;4995562;28;20584;-58
2023/03/27 06:32:08;;;;;;;0.00;0.00;;;4.50;99.90;;;;;;5013931;28;20178;-58
2023/03/27 06:34:34;;;;;;;0.00;0.00;;;4.60;99.90;;;;;;5013726;28;20211;-58
2023/03/27 06:37:02;;;;;;;0.00;0.00;;;4.70;99.90;;;;;;4996408;28;20197;-59
2023/03/27 06:39:27;;;;;;;0.00;0.00;;;4.90;99.90;;;;;;5013905;28;20175;-59
2023/03/27 06:41:53;;;;;;;0.00;0.00;;;5.20;99.90;;;;;;5013865;28;20274;-59
2023/03/27 06:44:19;;;;;;;0.00;0.00;;;5.50;99.90;;;;;;5013659;28;20178;-59
2023/03/27 06:46:44;;;;;;;0.00;0.00;;;5.80;99.90;;;;;;4996260;28;20194;-59
2023/03/27 06:49:10;;;;;;;0.00;0.00;;;6.30;99.90;;;;;;5013634;28;20622;-59
2023/03/27 06:51:35;;;;;;;0.00;0.00;;;7.00;99.90;;;;;;5013446;28;20186;-59
2023/03/27 06:54:03;;;;;;;0.00;0.00;;;7.60;99.90;;;;;;4995919;28;20214;-59
2023/03/27 06:56:29;;;;;;;0.00;0.00;;;8.30;98.30;;;;;;5013541;28;20209;-59
2023/03/27 06:58:55;;;;;;;0.00;0.00;;;8.60;96.90;;;;;;5013531;28;20183;-59
2023/03/27 07:01:21;;;;;;;0.00;0.00;;;8.70;95.80;;;;;;5013523;28;20182;-59
2023/03/27 07:03:47;;;;;;;0.00;0.00;;;8.30;94.60;;;;;;5013801;28;20596;-59
2023/03/27 07:06:13;;;;;;;0.00;0.00;;;7.70;95.10;;;;;;5013421;28;20284;-59
2023/03/27 07:08:38;;;;;;;0.00;0.00;;;7.50;95.80;;;;;;5013707;28;20187;-59
2023/03/27 07:11:04;;;;;;;0.00;0.00;;;7.20;96.30;;;;;;5013478;28;20183;-58
2023/03/27 07:13:30;;;;;;;0.00;0.00;;;7.10;96.70;;;;;;5013263;28;20234;-59
2023/03/27 07:15:56;;;;;;;0.00;0.00;;;6.80;97.10;;;;;;5013291;28;20178;-59
2023/03/27 07:18:22;;;;;;;0.00;0.00;;;6.90;97.70;;;;;;5013353;28;20211;-59
2023/03/27 07:20:49;;;;;;;0.00;0.00;;;6.90;97.50;;;;;;5013464;28;20182;-59
2023/03/27 07:23:14;;;;;;;0.00;0.00;;;7.10;97.10;;;;;;5013177;28;20546;-59
2023/03/27 07:25:40;;;;;;;0.00;0.00;;;7.30;97.20;;;;;;5013290;28;20237;-59
2023/03/27 07:28:09;;;;;;;0.00;0.00;;;7.50;96.10;;;;;;5013210;28;20213;-59
2023/03/27 07:30:35;;;;;;;0.00;0.00;;;7.40;96.20;;;;;;5013168;28;20178;-59
2023/03/27 07:33:01;;;;;;;0.00;0.00;;;7.20;96.10;;;;;;5013051;28;20214;-59
2023/03/27 07:35:27;;;;;;;0.00;0.00;;;7.20;96.00;;;;;;5013053;28;20229;-59
2023/03/27 07:37:53;;;;;;;0.20;0.20;;;7.30;96.30;;;;;;5013036;28;20245;-59
2023/03/27 07:40:22;;;;;;;0.00;0.00;;;7.40;96.50;;;;;;5012571;28;20185;-59
2023/03/27 07:42:49;;;;;;;0.00;0.00;;;7.20;94.90;;;;;;5013180;28;20207;-59
2023/03/27 07:45:16;;;;;;;0.05;0.05;;;7.20;95.10;;;;;;5012717;28;20179;-59
2023/03/27 07:47:43;;;;;;;0.00;0.00;;;7.50;96.40;;;;;;5013076;28;20183;-59
2023/03/27 07:50:10;;;;;;;0.00;0.00;;;8.10;95.70;;;;;;5012863;28;20577;-59
2023/03/27 07:52:39;;;;;;;0.00;0.00;;;8.80;94.60;;;;;;5012653;28;20233;-59
2023/03/27 07:55:06;;;;;;;0.00;0.00;;;9.50;93.10;;;;;;5012842;28;20183;-59
2023/03/27 07:57:32;;;;;;;0.00;0.00;;;10.30;91.50;;;;;;5012671;28;20203;-59
2023/03/27 07:59:58;;;;;;;0.00;0.00;;;10.90;89.90;;;;;;5012617;28;20186;-59
2023/03/27 08:02:23;;;;;;;0.00;0.00;;;11.40;82.30;;;;;;5012498;28;20163;-59
2023/03/27 08:04:50;;;;;;;0.00;0.00;;;11.30;80.40;;;;;;4994993;28;20269;-59
2023/03/27 08:07:16;;;;;;;0.00;0.00;;;11.20;80.80;;;;;;5012171;28;20233;-59
2023/03/27 08:09:42;;;;;;;0.00;0.00;;;11.00;78.00;;;;;;4994881;28;20179;-59
2023/03/27 08:12:07;;;;;;;0.00;0.00;;;10.60;76.80;;;;;;5012390;28;20266;-59
2023/03/27 08:14:33;;;;;;;0.10;0.10;;;10.50;75.70;;;;;;5012357;28;20227;-59
2023/03/27 08:16:58;;;;;;;0.00;0.00;;;10.70;75.50;;;;;;5012385;28;20533;-59
2023/03/27 08:19:24;;;;;;;0.00;0.00;;;10.90;76.00;;;;;;5012307;28;20612;-59
2023/03/27 08:21:50;;;;;;;0.00;0.00;;;11.40;75.20;;;;;;5012263;28;20190;-59
2023/03/27 08:24:15;;;;;;;0.00;0.00;;;11.80;75.30;;;;;;5011914;28;20178;-59
2023/03/27 08:26:41;;;;;;;0.00;0.00;;;12.40;71.70;;;;;;5012319;28;20222;-59
2023/03/27 08:29:07;;;;;;;0.00;0.00;;;12.80;69.90;;;;;;5012251;28;20171;-59
2023/03/27 08:31:33;;;;;;;0.00;0.00;;;13.20;67.50;;;;;;5011979;28;20396;-59
2023/03/27 08:33:59;;;;;;;0.00;0.00;;;13.60;67.00;;;;;;5011951;28;20210;-60
2023/03/27 08:36:26;;;;;;;0.00;0.00;;;13.90;66.70;;;;;;5012003;28;20179;-60
2023/03/27 08:38:53;;;;;;;0.00;0.00;;;14.40;64.10;;;;;;5012469;28;20661;-60
2023/03/27 08:41:32;;;;;;;0.00;0.00;;;14.80;62.80;;;;;;5011839;28;20174;-60
2023/03/27 08:44:02;;;;;;;0.00;0.00;;;15.10;60.40;;;;;;5011882;28;20193;-60
2023/03/27 08:46:39;;;;;;;0.00;0.00;;;15.00;58.60;;;;;;5011834;28;20574;-59
2023/03/27 08:49:13;;;;;;;0.00;0.00;;;14.50;58.20;;;;;;5012018;28;20642;-59
2023/03/27 08:51:51;;;;;;;0.00;0.00;;;14.10;59.80;;;;;;5011324;28;20167;-59
2023/03/27 08:54:23;;;;;;;0.00;0.00;;;13.90;58.70;;;;;;5011554;28;20445;-59
2023/03/27 08:56:49;;;;;;;0.00;0.00;;;13.50;58.30;;;;;;5011874;28;20232;-59
2023/03/27 08:59:19;;;;;;;0.00;0.00;;;13.20;59.70;;;;;;5011572;28;20182;-59
2023/03/27 09:02:21;;;;;;;0.00;0.00;;;13.10;61.60;;;;;;5011823;28;20182;-59
2023/03/27 09:05:00;;;;;;;0.00;0.00;;;13.10;61.70;;;;;;4986986;28;20191;-59
2023/03/27 09:08:10;;;;;;;0.00;0.00;;;13.00;60.60;;;;;;5011429;28;20697;-59
2023/03/27 09:10:50;;;;;;;0.00;0.00;;;12.50;59.70;;;;;;4994178;28;20191;-59
2023/03/27 09:13:40;;;;;;;0.00;0.00;;;12.10;62.30;;;;;;4993943;28;20575;-59
2023/03/27 09:16:14;;;;;;;0.00;0.00;;;12.20;62.70;;;;;;5011631;28;20224;-59
2023/03/27 09:18:58;;;;;;;0.00;0.00;;;12.50;62.20;;;;;;5011466;28;20276;-59
2023/03/27 09:21:48;;;;;;;0.00;0.00;;;13.10;63.30;;;;;;5011558;28;20229;-59
2023/03/27 09:24:29;;;;;;;0.00;0.00;;;13.20;60.10;;;;;;5011285;28;20649;-59
2023/03/27 09:26:55;;;;;;;0.00;0.00;;;12.80;61.90;;;;;;5011524;28;20345;-59
2023/03/27 09:29:28;;;;;;;0.00;0.00;;;12.50;60.20;;;;;;5011282;28;20167;-59
2023/03/27 09:31:56;;;;;;;0.00;0.00;;;12.00;59.10;;;;;;5011371;28;20197;-59
2023/03/27 09:34:31;;;;;;;0.00;0.00;;;11.50;60.50;;;;;;5011162;28;20222;-59
2023/03/27 09:36:58;;;;;;;0.00;0.00;;;11.60;62.80;;;;;;5011290;28;20183;-59
2023/03/27 09:39:31;;;;;;;0.00;0.00;;;11.80;60.00;;;;;;5011363;28;20183;-59
2023/03/27 09:42:09;;;;;;;0.00;0.00;;;12.10;60.50;;;;;;5011162;28;20171;-59
2023/03/27 09:44:38;;;;;;;0.00;0.00;;;12.40;58.30;;;;;;5011132;28;20167;-59
2023/03/27 09:47:14;;;;;;;0.00;0.00;;;12.60;58.70;;;;;;5011333;28;20250;-59
2023/03/27 09:49:44;;;;;;;0.10;0.10;;;12.80;57.60;;;;;;5011345;28;20261;-59
2023/03/27 09:52:39;;;;;;;0.00;0.00;;;13.10;56.80;;;;;;4993470;28;20175;-59
2023/03/27 09:55:25;;;;;;;0.00;0.00;;;13.00;56.00;;;;;;5011317;28;20525;-59
2023/03/27 09:57:57;;;;;;;0.00;0.00;;;12.90;56.90;;;;;;5011261;28;20178;-59
2023/03/27 10:00:26;;;;;;;0.00;0.00;;;12.90;54.90;;;;;;5011003;28;20270;-59
2023/03/27 10:03:04;;;;;;;0.00;0.00;;;12.40;56.50;;;;;;5012513;28;20167;-59
2023/03/27 10:05:30;;;;;;;0.00;0.00;;;12.30;57.40;;;;;;5014549;28;20186;-59
2023/03/27 10:08:00;;;;;;;0.08;0.08;;;12.40;57.10;;;;;;5014692;28;20178;-59
2023/03/27 10:10:30;;;;;;;0.00;0.00;;;12.70;57.30;;;;;;5014345;28;20195;-59
2023/03/27 10:12:58;;;;;;;0.00;0.00;;;12.90;57.50;;;;;;5014514;28;20218;-59
2023/03/27 10:15:35;;;;;;;0.00;0.00;;;13.20;57.80;;;;;;5014423;28;20175;-59
2023/03/27 10:18:19;;;;;;;0.00;0.00;;;13.50;57.30;;;;;;5014452;28;20321;-59
2023/03/27 10:20:52;;;;;;;0.00;0.00;;;13.60;55.90;;;;;;5014565;28;20535;-59
2023/03/27 10:23:27;;;;;;;0.00;0.00;;;13.80;53.80;;;;;;5014158;28;20321;-59
2023/03/27 10:25:58;;;;;;;0.00;0.00;;;13.40;53.80;;;;;;5014479;28;20324;-59
2023/03/27 10:28:27;;;;;;;0.00;0.00;;;12.80;54.80;;;;;;5014421;28;20572;-59
2023/03/27 10:31:12;;;;;;;0.00;0.00;;;12.30;56.20;;;;;;5014335;28;20179;-59
2023/03/27 10:33:40;;;;;;;0.00;0.00;;;11.60;56.40;;;;;;5013968;28;20211;-59
2023/03/27 10:36:08;;;;;;;0.00;0.00;;;10.80;57.10;;;;;;5014296;28;20202;-59
2023/03/27 10:38:37;;;;;;;0.00;0.00;;;10.50;57.70;;;;;;5013981;28;20183;-59
2023/03/27 10:41:12;;;;;;;0.00;0.00;;;10.70;59.10;;;;;;5014146;28;20540;-59
2023/03/27 10:43:46;;;;;;;0.00;0.00;;;11.20;56.40;;;;;;5013883;28;20210;-59
2023/03/27 10:46:15;;;;;;;0.00;0.00;;;11.60;57.20;;;;;;5014025;28;20171;-59
2023/03/27 10:48:47;;;;;;;0.00;0.00;;;12.20;56.40;;;;;;5014044;28;20171;-59
2023/03/27 10:51:46;;;;;;;0.00;0.00;;;12.60;55.40;;;;;;4996327;28;20171;-59
2023/03/27 10:54:33;;;;;;;0.00;0.00;;;13.00;55.10;;;;;;5013792;28;20244;-59
2023/03/27 10:57:18;;;;;;;0.00;0.00;;;13.10;53.90;;;;;;5013911;28;20186;-59
2023/03/27 10:59:46;;;;;;;0.00;0.00;;;12.90;53.60;;;;;;5013859;28;20190;-59
2023/03/27 11:02:50;;;;;;;0.05;0.05;;;12.60;54.20;;;;;;5013410;28;20653;-59
2023/03/27 11:05:24;;;;;;;0.00;0.00;;;11.90;54.80;;;;;;4984449;28;20326;-59
2023/03/27 11:08:26;;;;;;;0.00;0.00;;;11.80;57.30;;;;;;5013441;28;20273;-59
2023/03/27 11:10:56;;;;;;;0.00;0.00;;;11.70;56.50;;;;;;5011062;28;20202;-59
2023/03/27 11:13:28;;;;;;;0.00;0.00;;;11.70;56.50;;;;;;5013268;28;20206;-59
2023/03/27 11:16:20;;;;;;;0.00;0.00;;;11.70;56.90;;;;;;5012696;28;20716;-59
2023/03/27 11:18:51;;;;;;;0.10;0.10;;;11.80;57.90;;;;;;5013369;28;20187;-59
2023/03/27 11:21:24;;;;;;;0.00;0.00;;;12.10;57.10;;;;;;5013145;28;20202;-59
2023/03/27 11:23:56;;;;;;;0.00;0.00;;;12.30;56.80;;;;;;5013227;28;20697;-59
2023/03/27 11:26:57;;;;;;;0.00;0.00;;;12.40;56.10;;;;;;5013038;28;20179;-59
2023/03/27 11:29:29;;;;;;;0.00;0.00;;;12.40;54.90;;;;;;4995654;28;20183;-59
2023/03/27 11:32:00;;;;;;;0.00;0.00;;;12.20;56.00;;;;;;5013020;28;20179;-59
2023/03/27 11:34:52;;;;;;;0.00;0.00;;;12.00;55.80;;;;;;5012723;28;20916;-59
2023/03/27 11:37:22;;;;;;;0.00;0.00;;;12.10;54.10;;;;;;5012736;28;20201;-59
2023/03/27 11:39:54;;;;;;;0.00;0.00;;;11.90;53.40;;;;;;5012942;28;20175;-59
2023/03/27 11:42:23;;;;;;;0.00;0.00;;;11.50;53.80;;;;;;4995280;28;20624;-59
2023/03/27 11:44:50;;;;;;;0.00;0.00;;;11.40;56.30;;;;;;5012747;28;20171;-59
2023/03/27 11:47:30;;;;;;;0.00;0.00;;;11.30;57.10;;;;;;5012639;28;20186;-59
2023/03/27 11:50:29;;;;;;;0.00;0.00;;;11.30;57.10;;;;;;5012705;28;20221;-59
2023/03/27 11:53:24;;;;;;;0.00;0.00;;;11.40;57.20;;;;;;5012727;28;20234;-59
2023/03/27 11:56:09;;;;;;;0.00;0.00;;;11.60;57.00;;;;;;5012763;28;20190;-59
2023/03/27 11:58:56;;;;;;;0.00;0.00;;;12.00;56.80;;;;;;5012489;28;20174;-59
2023/03/27 12:01:40;;;;;;;0.00;0.00;;;12.50;57.30;;;;;;5012472;28;20183;-59
2023/03/27 12:04:26;;;;;;;0.00;0.00;;;12.80;56.20;;;;;;5012664;28;20189;-60
2023/03/27 12:07:05;;;;;;;0.00;0.00;;;12.90;55.80;;;;;;4972387;28;20226;-60
2023/03/27 12:09:55;;;;;;;0.00;0.00;;;12.60;55.60;;;;;;4994758;28;20265;-60
2023/03/27 12:12:59;;;;;;;0.00;0.00;;;12.00;56.30;;;;;;5012005;28;20179;-59
2023/03/27 12:15:27;;;;;;;0.00;0.00;;;11.50;57.50;;;;;;5012281;28;20170;-60
2023/03/27 12:18:21;;;;;;;0.00;0.00;;;11.30;58.90;;;;;;5012361;28;20182;-59
2023/03/27 12:20:54;;;;;;;0.00;0.00;;;11.20;59.00;;;;;;5012169;28;20653;-59
2023/03/27 12:24:00;;;;;;;0.00;0.00;;;10.80;60.30;;;;;;5012099;28;20269;-59
2023/03/27 12:26:40;;;;;;;0.00;0.00;;;10.60;60.70;;;;;;5011239;28;20640;-59
2023/03/27 12:29:32;;;;;;;0.00;0.00;;;10.00;63.90;;;;;;5012155;28;20174;-59
2023/03/27 12:32:35;;;;;;;0.00;0.00;;;9.00;71.00;;;;;;5012055;28;20171;-59
2023/03/27 12:35:15;;;;;;;0.00;0.00;;;8.50;77.20;;;;;;5012121;28;20191;-59
2023/03/27 12:37:46;;;;;;;0.00;0.00;;;8.20;81.10;;;;;;5011943;28;20179;-59
2023/03/27 12:40:31;;;;;;;0.00;0.00;;;7.90;86.40;;;;;;4995098;28;20213;-59
2023/03/27 12:43:20;;;;;;;0.00;0.00;;;7.60;90.30;;;;;;5011872;28;20182;-59
2023/03/27 12:46:13;;;;;;;0.00;0.00;;;7.40;94.00;;;;;;5011965;28;20175;-59
2023/03/27 12:49:06;;;;;;;0.00;0.00;;;7.00;98.20;;;;;;5011911;28;20178;-59
2023/03/27 12:52:03;;;;;;;0.00;0.00;;;6.90;99.90;;;;;;5011669;28;20277;-61
2023/03/27 12:54:30;;;;;;;0.00;0.00;;;6.70;99.90;;;;;;5011523;28;20249;-59
2023/03/27 12:57:15;;;;;;;0.00;0.00;;;6.30;99.90;;;;;;5011648;28;20254;-59
2023/03/27 12:59:53;;;;;;;0.00;0.00;;;5.90;99.90;;;;;;5011653;28;20183;-59
2023/03/27 13:02:36;;;;;;;0.00;0.00;;;5.70;99.90;;;;;;5011474;28;20606;-59
2023/03/27 13:05:20;;;;;;;0.00;0.00;;;5.70;99.90;;;;;;5011691;28;20661;-59
2023/03/27 13:08:16;;;;;;;0.00;0.00;;;5.70;99.90;;;;;;5011862;28;20221;-58
2023/03/27 13:11:12;;;;;;;0.00;0.00;;;5.70;99.90;;;;;;5009732;28;20179;-59
2023/03/27 13:14:15;;;;;;;0.00;0.00;;;6.20;99.90;;;;;;5011425;28;20210;-59
2023/03/27 13:16:47;;;;;;;0.00;0.00;;;6.50;99.90;;;;;;4945753;28;20226;-59
2023/03/27 13:19:30;;;;;;;0.00;0.00;;;6.90;99.90;;;;;;5011335;28;20711;-59
2023/03/27 13:22:17;;;;;;;0.00;0.00;;;7.30;99.90;;;;;;5011362;28;20178;-59
2023/03/27 13:24:46;;;;;;;0.00;0.00;;;7.50;99.90;;;;;;5011612;28;20577;-59